createdAt,value
2023-01-01T00:01:21.356Z,8.65
2023-01-01T00:03:55.405Z,6.22
2023-01-01T00:06:22.836Z,11.73
2023-01-01T00:09:10.146Z,12.05
2023-01-01T00:11:37.354Z,7.72
2023-01-01T00:14:11.886Z,7.28
2023-01-01T00:16:39.626Z,9.02
2023-01-01T00:19:06.940Z,9.13
2023-01-01T00:21:34.285Z,7.00
2023-01-01T00:24:01.362Z,9.40
2023-01-01T00:26:34.607Z,8.10
2023-01-01T00:29:02.703Z,7.75
2023-01-01T00:31:30.129Z,10.02
2023-01-01T00:33:58.055Z,8.02
2023-01-01T00:36:26.976Z,5.82
2023-01-01T00:38:54.373Z,7.97
2023-01-01T00:41:21.939Z,8.05
2023-01-01T00:43:48.900Z,8.48
2023-01-01T00:46:16.142Z,9.35
2023-01-01T00:48:43.310Z,4.68
2023-01-01T00:51:10.408Z,8.20
2023-01-01T00:53:37.533Z,6.88
2023-01-01T00:56:05.247Z,7.15
2023-01-01T00:58:32.363Z,7.22
2023-01-01T01:00:59.780Z,7.18
2023-01-01T01:03:30.757Z,5.70
2023-01-01T01:06:03.849Z,6.25
2023-01-01T01:08:34.788Z,6.47
2023-01-01T01:11:10.343Z,6.20
2023-01-01T01:13:38.192Z,6.10
2023-01-01T01:16:10.716Z,5.03
2023-01-01T01:18:37.953Z,8.23
2023-01-01T01:21:05.327Z,6.05
2023-01-01T01:23:32.981Z,6.18
2023-01-01T01:26:21.214Z,8.80
2023-01-01T01:28:49.947Z,7.10
2023-01-01T01:31:18.903Z,5.97
2023-01-01T01:33:47.120Z,7.28
2023-01-01T01:36:14.872Z,5.70
2023-01-01T01:38:42.418Z,5.03
2023-01-01T01:41:25.734Z,5.93
2023-01-01T01:44:03.409Z,6.40
2023-01-01T01:46:35.040Z,5.15
2023-01-01T01:49:18.312Z,4.65
2023-01-01T01:51:46.153Z,6.25
2023-01-01T01:54:20.410Z,5.07
2023-01-01T01:56:49.121Z,4.13
2023-01-01T01:59:19.017Z,7.03
2023-01-01T02:01:46.165Z,5.50
2023-01-01T02:04:13.433Z,6.00
2023-01-01T02:06:41.237Z,3.55
2023-01-01T02:09:09.637Z,4.00
2023-01-01T02:11:37.119Z,4.25
2023-01-01T02:14:04.839Z,5.03
2023-01-01T02:16:37.993Z,5.18
2023-01-01T02:19:18.680Z,6.88
2023-01-01T02:21:52.137Z,3.22
2023-01-01T02:24:48.900Z,6.28
2023-01-01T02:27:21.071Z,6.20
2023-01-01T02:29:53.038Z,4.63
2023-01-01T02:32:27.846Z,3.58
2023-01-01T02:35:20.402Z,6.22
2023-01-01T02:37:50.591Z,3.47
2023-01-01T02:40:21.374Z,3.80
2023-01-01T02:42:49.522Z,3.03
2023-01-01T02:45:16.548Z,3.83
2023-01-01T02:47:43.475Z,3.80
2023-01-01T02:50:22.150Z,3.10
2023-01-01T02:53:00.728Z,4.40
2023-01-01T02:55:37.376Z,3.55
2023-01-01T02:58:34.852Z,3.85
2023-01-01T03:01:47.010Z,4.55
2023-01-01T03:04:30.136Z,3.13
2023-01-01T03:07:30.090Z,4.45
2023-01-01T03:10:08.028Z,2.70
2023-01-01T03:12:51.202Z,3.80
2023-01-01T03:15:42.987Z,3.15
2023-01-01T03:18:24.456Z,4.78
2023-01-01T03:20:56.380Z,5.10
2023-01-01T03:23:30.255Z,4.10
2023-01-01T03:26:01.854Z,5.35
2023-01-01T03:28:35.732Z,5.90
2023-01-01T03:31:03.573Z,6.85
2023-01-01T03:33:39.279Z,3.55
2023-01-01T03:36:09.285Z,4.35
2023-01-01T03:38:42.179Z,4.10
2023-01-01T03:41:40.781Z,5.93
2023-01-01T03:44:18.961Z,4.13
2023-01-01T03:46:46.848Z,4.13
2023-01-01T03:49:14.904Z,5.38
2023-01-01T03:52:03.569Z,3.80
2023-01-01T03:54:58.790Z,5.95
2023-01-01T03:57:33.418Z,5.40
2023-01-01T04:00:32.640Z,6.32
2023-01-01T04:03:18.360Z,4.18
2023-01-01T04:05:45.895Z,6.00
2023-01-01T04:08:15.665Z,6.65
2023-01-01T04:10:46.373Z,5.22
2023-01-01T04:13:13.737Z,6.13
2023-01-01T04:15:40.781Z,5.00
2023-01-01T04:18:07.923Z,6.32
2023-01-01T04:20:35.072Z,3.85
2023-01-01T04:23:02.756Z,7.43
2023-01-01T04:25:30.059Z,5.32
2023-01-01T04:27:58.538Z,5.97
2023-01-01T04:30:26.938Z,3.70
2023-01-01T04:32:56.400Z,8.35
2023-01-01T04:35:23.573Z,3.67
2023-01-01T04:37:50.586Z,3.58
2023-01-01T04:40:18.042Z,5.05
2023-01-01T04:42:45.111Z,5.45
2023-01-01T04:45:15.384Z,4.75
2023-01-01T04:47:43.077Z,5.03
2023-01-01T04:50:10.619Z,4.45
2023-01-01T04:52:37.849Z,4.03
2023-01-01T04:55:05.303Z,7.93
2023-01-01T04:57:32.455Z,7.68
2023-01-01T04:59:59.530Z,4.40
2023-01-01T05:02:26.980Z,4.75
2023-01-01T05:04:54.314Z,6.90
2023-01-01T05:07:21.363Z,4.90
2023-01-01T05:09:48.371Z,5.70
2023-01-01T05:12:15.467Z,4.07
2023-01-01T05:14:43.156Z,6.35
2023-01-01T05:17:10.239Z,4.80
2023-01-01T05:19:37.297Z,4.57
2023-01-01T05:22:10.354Z,4.60
2023-01-01T05:24:37.821Z,8.07
2023-01-01T05:27:04.788Z,3.45
2023-01-01T05:29:31.744Z,4.43
2023-01-01T05:31:58.824Z,4.57
2023-01-01T05:34:27.461Z,4.40
2023-01-01T05:36:54.520Z,5.22
2023-01-01T05:39:21.508Z,3.47
2023-01-01T05:41:48.571Z,4.35
2023-01-01T05:44:17.399Z,5.03
2023-01-01T05:46:47.310Z,3.95
2023-01-01T05:49:17.092Z,3.85
2023-01-01T05:51:44.220Z,3.10
2023-01-01T05:56:37.246Z,2.25
2023-01-01T05:59:04.659Z,3.65
2023-01-01T06:01:32.421Z,5.97
2023-01-01T06:04:00.214Z,4.22
2023-01-01T06:06:30.637Z,4.45
2023-01-01T06:09:02.434Z,4.93
2023-01-01T06:11:30.664Z,3.05
2023-01-01T06:13:59.896Z,5.55
2023-01-01T06:16:28.168Z,2.40
2023-01-01T06:18:55.248Z,3.42
2023-01-01T06:21:24.624Z,5.60
2023-01-01T06:23:51.974Z,3.05
2023-01-01T06:26:21.925Z,3.38
2023-01-01T06:28:49.351Z,2.60
2023-01-01T06:31:21.211Z,3.07
2023-01-01T06:33:49.416Z,3.53
2023-01-01T06:36:18.851Z,3.60
2023-01-01T06:38:48.308Z,3.95
2023-01-01T06:41:20.789Z,4.80
2023-01-01T06:43:47.870Z,4.47
2023-01-01T06:46:23.463Z,3.88
2023-01-01T06:48:59.734Z,4.30
2023-01-01T06:51:32.536Z,5.95
2023-01-01T06:54:01.610Z,3.20
2023-01-01T06:56:29.151Z,4.72
2023-01-01T06:58:56.581Z,5.10
2023-01-01T07:01:26.213Z,4.25
2023-01-01T07:03:58.042Z,5.85
2023-01-01T07:06:26.836Z,6.07
2023-01-01T07:08:53.838Z,4.20
2023-01-01T07:11:21.656Z,3.15
2023-01-01T07:13:48.763Z,5.80
2023-01-01T07:16:16.361Z,3.88
2023-01-01T07:18:43.556Z,3.03
2023-01-01T07:21:30.149Z,4.47
2023-01-01T07:23:58.691Z,3.78
2023-01-01T07:26:27.356Z,4.40
2023-01-01T07:28:55.719Z,4.05
2023-01-01T07:31:24.548Z,2.72
2023-01-01T07:33:51.660Z,5.20
2023-01-01T07:36:18.564Z,3.95
2023-01-01T07:38:45.517Z,3.33
2023-01-01T07:41:12.519Z,3.90
2023-01-01T07:43:39.486Z,2.67
2023-01-01T07:46:06.556Z,5.47
2023-01-01T07:48:39.777Z,4.90
2023-01-01T07:51:07.211Z,3.33
2023-01-01T07:53:34.488Z,4.38
2023-01-01T07:56:01.490Z,5.80
2023-01-01T07:58:28.632Z,8.52
2023-01-01T08:00:55.600Z,5.25
2023-01-01T08:03:22.658Z,4.47
2023-01-01T08:05:49.794Z,3.80
2023-01-01T08:08:16.859Z,4.55
2023-01-01T08:10:43.867Z,7.28
2023-01-01T08:13:10.948Z,3.67
2023-01-01T08:15:38.224Z,4.10
2023-01-01T08:18:05.754Z,8.02
2023-01-01T08:20:33.974Z,3.72
2023-01-01T08:23:07.468Z,4.97
2023-01-01T08:25:35.391Z,5.63
2023-01-01T08:28:02.456Z,4.22
2023-01-01T08:30:29.620Z,5.47
2023-01-01T08:32:56.593Z,4.68
2023-01-01T08:35:23.612Z,3.60
2023-01-01T08:37:50.601Z,5.18
2023-01-01T08:40:17.633Z,5.72
2023-01-01T08:42:44.634Z,4.40
2023-01-01T08:45:11.673Z,4.93
2023-01-01T08:47:38.631Z,8.20
2023-01-01T08:50:06.253Z,4.15
2023-01-01T08:52:33.249Z,4.45
2023-01-01T08:55:01.168Z,3.28
2023-01-01T08:57:31.918Z,4.47
2023-01-01T08:59:59.559Z,4.90
2023-01-01T09:02:26.674Z,8.30
2023-01-01T09:04:53.838Z,3.70
2023-01-01T09:07:20.894Z,4.90
2023-01-01T09:09:47.947Z,3.88
2023-01-01T09:12:16.697Z,4.47
2023-01-01T09:14:47.984Z,4.78
2023-01-01T09:17:15.167Z,4.75
2023-01-01T09:19:42.204Z,6.63
2023-01-01T09:22:11.025Z,8.48
2023-01-01T09:24:38.327Z,3.67
2023-01-01T09:27:05.740Z,5.65
2023-01-01T09:29:33.097Z,6.78
2023-01-01T09:32:00.333Z,5.22
2023-01-01T09:34:28.118Z,8.77
2023-01-01T09:36:55.178Z,5.35
2023-01-01T09:39:22.192Z,6.00
2023-01-01T09:42:25.097Z,6.47
2023-01-01T09:45:31.555Z,5.43
2023-01-01T09:48:11.690Z,6.20
2023-01-01T09:50:42.024Z,11.13
2023-01-01T09:53:17.391Z,8.35
2023-01-01T09:55:51.009Z,6.22
2023-01-01T09:58:22.101Z,8.63
2023-01-01T10:00:54.523Z,7.25
2023-01-01T10:03:36.055Z,15.45
2023-01-01T10:06:40.004Z,8.68
2023-01-01T10:09:38.277Z,10.77
2023-01-01T10:12:20.332Z,10.25
2023-01-01T10:15:00.677Z,5.15
2023-01-01T10:17:48.697Z,8.13
2023-01-01T10:20:22.288Z,5.72
2023-01-01T10:22:54.401Z,6.28
2023-01-01T10:25:25.686Z,6.25
2023-01-01T10:28:34.919Z,5.40
2023-01-01T10:31:16.561Z,5.28
2023-01-01T10:33:47.485Z,5.15
2023-01-01T10:36:18.193Z,5.35
2023-01-01T10:38:47.230Z,4.65
2023-01-01T10:41:19.605Z,7.65
2023-01-01T10:43:48.652Z,8.52
2023-01-01T10:46:29.582Z,6.57
2023-01-01T10:49:12.413Z,6.13
2023-01-01T10:51:45.368Z,4.60
2023-01-01T10:54:37.231Z,7.75
2023-01-01T10:57:32.992Z,8.48
2023-01-01T11:00:27.476Z,7.65
2023-01-01T11:03:20.191Z,8.13
2023-01-01T11:06:21.362Z,8.68
2023-01-01T11:08:51.859Z,12.25
2023-01-01T11:11:27.512Z,6.57
2023-01-01T11:13:58.664Z,6.45
2023-01-01T11:16:28.648Z,7.40
2023-01-01T11:19:05.639Z,8.52
2023-01-01T11:21:34.108Z,9.70
2023-01-01T11:24:17.172Z,15.98
2023-01-01T11:26:49.068Z,12.20
2023-01-01T11:29:26.454Z,10.40
2023-01-01T11:31:53.834Z,20.13
2023-01-01T11:34:32.776Z,9.95
2023-01-01T11:37:28.469Z,15.45
2023-01-01T11:39:57.871Z,12.98
2023-01-01T11:42:27.889Z,12.05
2023-01-01T11:45:15.034Z,12.98
2023-01-01T11:47:44.650Z,12.02
2023-01-01T11:50:14.668Z,9.55
2023-01-01T11:52:44.809Z,10.50
2023-01-01T11:55:24.517Z,12.90
2023-01-01T11:58:24.536Z,14.70
2023-01-01T12:00:56.695Z,8.25
2023-01-01T12:03:31.437Z,11.55
2023-01-01T12:06:08.674Z,10.88
2023-01-01T12:08:45.245Z,10.38
2023-01-01T12:11:21.151Z,10.23
2023-01-01T12:13:59.008Z,7.97
2023-01-01T12:16:55.293Z,11.15
2023-01-01T12:19:28.182Z,10.80
2023-01-01T12:21:59.493Z,15.15
2023-01-01T12:24:34.141Z,8.52
2023-01-01T12:27:16.587Z,6.97
2023-01-01T12:30:01.573Z,7.10
2023-01-01T12:32:42.682Z,5.50
2023-01-01T12:35:33.948Z,8.93
2023-01-01T12:38:22.806Z,7.55
2023-01-01T12:40:57.045Z,4.78
2023-01-01T12:44:19.290Z,6.25
2023-01-01T12:47:24.004Z,12.52
2023-01-01T12:50:00.128Z,6.70
2023-01-01T12:52:43.182Z,7.72
2023-01-01T12:55:36.693Z,5.10
2023-01-01T12:58:12.054Z,5.25
2023-01-01T13:00:42.564Z,4.15
2023-01-01T13:03:21.544Z,4.40
2023-01-01T13:05:54.154Z,6.57
2023-01-01T13:08:21.195Z,4.32
2023-01-01T13:10:52.028Z,4.75
2023-01-01T13:13:19.806Z,4.60
2023-01-01T13:15:57.616Z,5.03
2023-01-01T13:18:32.317Z,5.38
2023-01-01T13:21:05.797Z,4.45
2023-01-01T13:23:35.657Z,4.55
2023-01-01T13:26:17.726Z,4.28
2023-01-01T13:28:57.182Z,4.28
2023-01-01T13:31:39.868Z,3.85
2023-01-01T13:34:31.999Z,4.32
2023-01-01T13:37:11.029Z,4.45
2023-01-01T13:40:00.285Z,5.05
2023-01-01T13:42:52.064Z,4.80
2023-01-01T13:46:10.551Z,3.90
2023-01-01T13:48:33.674Z,4.55
2023-01-01T13:52:03.511Z,3.70
2023-01-01T13:54:54.005Z,4.10
2023-01-01T13:57:29.724Z,4.55
2023-01-01T14:00:18.795Z,4.70
2023-01-01T14:03:13.465Z,4.50
2023-01-01T14:05:51.261Z,5.38
2023-01-01T14:08:35.408Z,3.83
2023-01-01T14:11:17.621Z,6.22
2023-01-01T14:13:44.779Z,5.72
2023-01-01T14:16:14.648Z,4.72
2023-01-01T14:18:55.510Z,4.97
2023-01-01T14:21:26.188Z,4.78
2023-01-01T14:24:00.793Z,4.43
2023-01-01T14:26:29.788Z,4.85
2023-01-01T14:28:59.103Z,5.00
2023-01-01T14:31:40.428Z,4.85
2023-01-01T14:34:36.990Z,3.75
2023-01-01T14:37:06.466Z,5.30
2023-01-01T14:39:36.010Z,5.43
2023-01-01T14:42:09.428Z,3.38
2023-01-01T14:44:39.460Z,4.60
2023-01-01T14:47:23.260Z,6.55
2023-01-01T14:49:51.757Z,3.42
2023-01-01T14:52:25.683Z,3.42
2023-01-01T14:54:53.820Z,4.45
2023-01-01T14:57:33.465Z,4.72
2023-01-01T15:00:00.821Z,4.00
2023-01-01T15:02:40.857Z,4.30
2023-01-01T15:05:35.494Z,3.83
2023-01-01T15:08:06.482Z,3.50
2023-01-01T15:13:06.619Z,3.80
2023-01-01T15:15:45.303Z,5.20
2023-01-01T15:18:40.074Z,4.63
2023-01-01T15:21:31.258Z,5.43
2023-01-01T15:24:03.070Z,6.30
2023-01-01T15:26:39.426Z,3.95
2023-01-01T15:29:10.766Z,6.25
2023-01-01T15:31:42.898Z,5.07
2023-01-01T15:34:25.447Z,4.68
2023-01-01T15:36:55.185Z,7.10
2023-01-01T15:39:23.278Z,7.22
2023-01-01T15:41:52.657Z,4.35
2023-01-01T15:44:26.564Z,8.48
2023-01-01T15:47:03.284Z,4.35
2023-01-01T15:49:31.029Z,7.13
2023-01-01T15:52:03.975Z,9.45
2023-01-01T15:54:40.075Z,5.20
2023-01-01T15:57:24.267Z,5.63
2023-01-01T15:59:53.862Z,5.95
2023-01-01T16:02:27.390Z,5.38
2023-01-01T16:04:55.503Z,5.28
2023-01-01T16:07:24.536Z,6.70
2023-01-01T16:09:57.362Z,9.57
2023-01-01T16:12:25.282Z,7.30
2023-01-01T16:14:52.302Z,7.75
2023-01-01T16:17:20.867Z,5.13
2023-01-01T16:19:48.429Z,5.00
2023-01-01T16:22:17.681Z,7.20
2023-01-01T16:24:45.633Z,5.93
2023-01-01T16:27:13.031Z,5.55
2023-01-01T16:29:43.145Z,6.05
2023-01-01T16:32:16.843Z,6.05
2023-01-01T16:34:44.104Z,8.95
2023-01-01T16:37:11.156Z,5.82
2023-01-01T16:39:38.245Z,6.20
2023-01-01T16:42:05.382Z,5.82
2023-01-01T16:44:32.415Z,8.73
2023-01-01T16:46:59.431Z,4.43
2023-01-01T16:49:26.397Z,7.97
2023-01-01T16:51:53.338Z,4.93
2023-01-01T16:54:20.359Z,7.03
2023-01-01T16:56:47.381Z,3.60
2023-01-01T16:59:15.503Z,5.20
2023-01-01T17:01:42.768Z,5.43
2023-01-01T17:04:10.083Z,5.28
2023-01-01T17:06:38.627Z,8.02
2023-01-01T17:09:06.350Z,5.30
2023-01-01T17:11:34.055Z,6.47
2023-01-01T17:14:02.541Z,5.72
2023-01-01T17:16:34.679Z,7.82
2023-01-01T17:19:20.900Z,6.63
2023-01-01T17:21:48.692Z,7.13
2023-01-01T17:24:17.332Z,7.40
2023-01-01T17:26:44.689Z,7.47
2023-01-01T17:29:12.130Z,6.38
2023-01-01T17:31:39.286Z,5.25
2023-01-01T17:34:06.410Z,6.03
2023-01-01T17:36:33.694Z,4.78
2023-01-01T17:39:00.851Z,5.93
2023-01-01T17:41:27.990Z,7.78
2023-01-01T17:43:56.682Z,9.65
2023-01-01T17:46:29.888Z,6.82
2023-01-01T17:48:57.556Z,6.15
2023-01-01T17:51:24.584Z,7.00
2023-01-01T17:53:52.027Z,8.63
2023-01-01T17:56:20.844Z,11.52
2023-01-01T17:58:49.830Z,11.43
2023-01-01T18:01:23.664Z,11.05
2023-01-01T18:03:53.442Z,10.15
2023-01-01T18:06:21.100Z,6.57
2023-01-01T18:08:48.358Z,12.95
2023-01-01T18:11:15.406Z,8.43
2023-01-01T18:13:42.368Z,12.57
2023-01-01T18:16:10.221Z,8.20
2023-01-01T18:18:39.248Z,7.97
2023-01-01T18:21:22.027Z,8.85
2023-01-01T18:23:51.045Z,9.38
2023-01-01T18:26:19.266Z,7.28
2023-01-01T18:28:51.647Z,10.02
2023-01-01T18:31:19.270Z,8.10
2023-01-01T18:33:47.618Z,9.80
2023-01-01T18:36:19.783Z,8.55
2023-01-01T18:38:56.177Z,6.13
2023-01-01T18:41:47.835Z,10.13
2023-01-01T18:44:21.919Z,6.20
2023-01-01T18:47:13.792Z,8.77
2023-01-01T18:49:44.807Z,7.40
2023-01-01T18:52:23.059Z,8.85
2023-01-01T18:55:02.714Z,7.15
2023-01-01T18:57:30.272Z,9.27
2023-01-01T19:00:00.490Z,7.07
2023-01-01T19:02:41.418Z,8.02
2023-01-01T19:05:28.197Z,7.57
2023-01-01T19:08:22.491Z,7.22
2023-01-01T19:10:49.437Z,7.75
2023-01-01T19:13:32.697Z,7.88
2023-01-01T19:16:12.766Z,7.40
2023-01-01T19:18:44.059Z,6.72
2023-01-01T19:21:11.061Z,10.55
2023-01-01T19:23:47.837Z,7.30
2023-01-01T19:26:33.356Z,7.28
2023-01-01T19:29:19.501Z,8.43
2023-01-01T19:31:48.600Z,7.53
2023-01-01T19:34:16.060Z,10.48
2023-01-01T19:36:43.305Z,6.57
2023-01-01T19:39:10.936Z,10.82
2023-01-01T19:41:38.394Z,8.15
2023-01-01T19:44:10.144Z,6.15
2023-01-01T19:46:39.159Z,6.15
2023-01-01T19:49:06.207Z,9.48
2023-01-01T19:51:33.233Z,11.13
2023-01-01T19:54:01.200Z,9.57
2023-01-01T19:56:29.229Z,7.75
2023-01-01T19:58:57.468Z,8.07
2023-01-01T20:01:24.719Z,7.90
2023-01-01T20:03:54.784Z,10.63
2023-01-01T20:06:23.475Z,8.75
2023-01-01T20:08:50.673Z,8.65
2023-01-01T20:11:18.279Z,10.38
2023-01-01T20:13:45.380Z,8.90
2023-01-01T20:16:12.740Z,7.13
2023-01-01T20:18:40.445Z,10.63
2023-01-01T20:21:27.069Z,9.73
2023-01-01T20:23:55.533Z,5.75
2023-01-01T20:26:23.957Z,7.50
2023-01-01T20:29:09.583Z,9.73
2023-01-01T20:31:37.061Z,9.38
2023-01-01T20:34:04.800Z,9.48
2023-01-01T20:36:50.484Z,10.23
2023-01-01T20:39:17.499Z,11.13
2023-01-01T20:41:44.607Z,7.25
2023-01-01T20:44:12.354Z,8.98
2023-01-01T20:46:39.485Z,9.88
2023-01-01T20:49:06.468Z,8.07
2023-01-01T20:51:33.586Z,10.65
2023-01-01T20:54:00.619Z,9.30
2023-01-01T20:56:27.734Z,8.15
2023-01-01T20:58:59.512Z,5.78
2023-01-01T21:01:31.931Z,10.48
2023-01-01T21:03:59.246Z,9.95
2023-01-01T21:06:26.215Z,11.27
2023-01-01T21:08:53.267Z,6.20
2023-01-01T21:11:20.747Z,10.20
2023-01-01T21:13:49.070Z,10.73
2023-01-01T21:16:25.685Z,11.40
2023-01-01T21:18:52.727Z,10.73
2023-01-01T21:21:23.381Z,7.10
2023-01-01T21:23:52.735Z,10.43
2023-01-01T21:26:39.959Z,11.63
2023-01-01T21:29:18.353Z,12.70
2023-01-01T21:31:47.000Z,10.90
2023-01-01T21:34:26.514Z,9.45
2023-01-01T21:37:00.480Z,9.23
2023-01-01T21:39:31.054Z,6.78
2023-01-01T21:42:14.941Z,7.95
2023-01-01T21:44:41.952Z,8.00
2023-01-01T21:47:23.788Z,8.15
2023-01-01T21:49:58.034Z,6.10
2023-01-01T21:52:26.219Z,6.13
2023-01-01T21:54:54.007Z,7.15
2023-01-01T21:57:23.708Z,7.55
2023-01-01T21:59:52.067Z,5.73
2023-01-01T22:02:37.703Z,7.22
2023-01-01T22:05:29.647Z,5.82
2023-01-01T22:07:59.150Z,7.50
2023-01-01T22:10:36.213Z,7.18
2023-01-01T22:13:13.045Z,6.63
2023-01-01T22:15:42.528Z,6.30
2023-01-01T22:18:12.563Z,5.38
2023-01-01T22:26:34.096Z,4.82
2023-01-01T22:29:18.161Z,5.47
2023-01-01T22:31:49.765Z,6.35
2023-01-01T22:34:23.203Z,6.35
2023-01-01T22:36:50.343Z,6.80
2023-01-01T22:39:27.556Z,6.80
2023-01-01T22:41:54.945Z,6.75
2023-01-01T22:44:22.089Z,6.47
2023-01-01T22:46:49.217Z,6.57
2023-01-01T22:49:32.830Z,7.35
2023-01-01T22:51:59.978Z,7.28
2023-01-01T22:54:27.019Z,8.07
2023-01-01T22:56:53.954Z,7.25
2023-01-01T22:59:21.263Z,7.78
2023-01-01T23:01:48.267Z,5.82
2023-01-01T23:04:16.405Z,5.93
2023-01-01T23:06:43.731Z,5.68
2023-01-01T23:09:12.120Z,6.03
2023-01-01T23:11:39.716Z,4.82
2023-01-01T23:14:25.205Z,4.38
2023-01-01T23:16:52.256Z,3.50
2023-01-01T23:19:19.318Z,4.28
2023-01-01T23:21:46.969Z,4.10
2023-01-01T23:24:18.818Z,4.03
2023-01-01T23:26:47.660Z,4.78
2023-01-01T23:29:15.825Z,4.18
2023-01-01T23:31:43.597Z,3.50
2023-01-01T23:34:11.440Z,2.88
2023-01-01T23:36:39.709Z,2.63
2023-01-01T23:39:06.759Z,2.60
2023-01-01T23:41:33.832Z,3.72
2023-01-01T23:44:00.941Z,1.77
2023-01-01T23:46:28.168Z,1.70
2023-01-01T23:48:55.486Z,2.88
2023-01-01T23:51:22.645Z,1.38
2023-01-01T23:53:49.767Z,1.02
2023-01-01T23:56:17.135Z,1.10
2023-01-01T23:58:44.302Z,1.00
